Time;durP1;ratioP1;P1;durP2;ratioP2;P2;SDS_P1;SDS_P2;PMS_P1;PMS_P2;Temp;Humidity;BMP_temperature;BMP_pressure;BME280_temperature;BME280_humidity;BME280_pressure;Samples;Min_cycle;Max_cycle;Signal;HPM_P1;HPM_P2
2022/11/16 00:01:30;;;;;;;0.00;0.00;;;;;;;;;;5076741;28;20389;-89
2022/11/16 00:03:58;;;;;;;0.00;0.00;;;;;;;;;;5077137;28;20070;-90
2022/11/16 00:06:33;;;;;;;0.00;0.00;;;;;;;;;;5077130;28;20051;-89
2022/11/16 00:11:48;;;;;;;0.00;0.00;;;;;;;;;;5094037;28;20044;-90
2022/11/16 00:14:14;;;;;;;0.00;0.00;;;;;;;;;;5077053;28;20118;-89
2022/11/16 00:16:42;;;;;;;0.35;0.00;;;;;;;;;;5077034;28;20036;-89
2022/11/16 00:19:10;;;;;;;0.00;0.00;;;;;;;;;;5076675;28;20427;-88
2022/11/16 00:21:39;;;;;;;0.00;0.00;;;;;;;;;;5077028;28;20040;-89
2022/11/16 00:24:05;;;;;;;0.00;0.00;;;;;;;;;;5076299;28;20063;-90
2022/11/16 00:26:31;;;;;;;0.00;0.00;;;;;;;;;;5093618;28;20438;-90
2022/11/16 00:28:58;;;;;;;0.00;0.00;;;;;;;;;;5076688;28;20032;-90
2022/11/16 00:31:25;;;;;;;0.00;0.00;;;;;;;;;;5076188;28;20059;-88
2022/11/16 00:33:52;;;;;;;0.30;0.00;;;;;;;;;;5059687;28;20047;-89
2022/11/16 00:36:21;;;;;;;0.00;0.00;;;;;;;;;;5076249;28;20062;-88
2022/11/16 00:38:47;;;;;;;0.00;0.00;;;;;;;;;;5076259;28;20044;-90
2022/11/16 00:41:13;;;;;;;0.00;0.00;;;;;;;;;;5076335;28;20113;-90
2022/11/16 00:43:39;;;;;;;0.00;0.00;;;;;;;;;;5076474;28;20100;-89
2022/11/16 00:46:05;;;;;;;0.00;0.00;;;;;;;;;;5076420;28;20396;-90
2022/11/16 00:48:31;;;;;;;0.00;0.00;;;;;;;;;;5076135;28;20036;-89
2022/11/16 00:51:04;;;;;;;0.00;0.00;;;;;;;;;;5076104;28;20048;-88
2022/11/16 00:53:30;;;;;;;0.00;0.00;;;;;;;;;;5093237;28;20066;-88
2022/11/16 00:55:56;;;;;;;0.00;0.00;;;;;;;;;;5092804;28;20492;-90
2022/11/16 00:58:22;;;;;;;0.00;0.00;;;;;;;;;;5075975;28;20054;-88
2022/11/16 01:00:50;;;;;;;0.00;0.00;;;;;;;;;;5076059;28;20047;-88
2022/11/16 01:03:19;;;;;;;0.00;0.00;;;;;;;;;;5076191;28;20071;-89
2022/11/16 01:06:19;;;;;;;0.00;0.00;;;;;;;;;;5094414;28;20040;-89
2022/11/16 01:08:52;;;;;;;0.00;0.00;;;;;;;;;;5081459;28;20127;-89
2022/11/16 01:14:16;;;;;;;0.00;0.00;;;;;;;;;;5092967;28;20391;-89
2022/11/16 01:16:48;;;;;;;;;;;;;;;;;;5077069;28;20131;-89
2022/11/16 01:19:14;;;;;;;0.00;0.00;;;;;;;;;;5075891;28;19953;-90
2022/11/16 01:21:40;;;;;;;0.00;0.00;;;;;;;;;;5092718;28;20036;-88
2022/11/16 01:24:06;;;;;;;0.00;0.00;;;;;;;;;;5076367;28;20032;-88
2022/11/16 01:26:35;;;;;;;0.00;0.00;;;;;;;;;;5092735;28;20039;-88
2022/11/16 01:29:01;;;;;;;0.00;0.00;;;;;;;;;;5092741;28;20040;-89
2022/11/16 01:31:27;;;;;;;0.08;0.08;;;;;;;;;;5059002;28;20087;-87
2022/11/16 01:33:55;;;;;;;0.00;0.00;;;;;;;;;;5075937;28;20044;-89
2022/11/16 01:36:23;;;;;;;0.00;0.00;;;;;;;;;;5076088;28;20044;-88
2022/11/16 01:38:52;;;;;;;0.00;0.00;;;;;;;;;;5058960;28;20083;-90
2022/11/16 01:41:20;;;;;;;0.35;0.05;;;;;;;;;;5075908;28;20043;-88
2022/11/16 01:44:06;;;;;;;0.00;0.00;;;;;;;;;;5075738;28;20036;-88
2022/11/16 01:46:33;;;;;;;0.00;0.00;;;;;;;;;;5075433;28;20036;-88
2022/11/16 01:49:05;;;;;;;0.00;0.00;;;;;;;;;;5091880;28;20085;-87
2022/11/16 01:51:34;;;;;;;0.00;0.00;;;;;;;;;;5075446;28;20091;-91
2022/11/16 01:54:08;;;;;;;0.00;0.00;;;;;;;;;;5059087;28;20036;-88
2022/11/16 01:56:39;;;;;;;0.00;0.00;;;;;;;;;;5075704;28;20069;-89
2022/11/16 01:59:05;;;;;;;0.00;0.00;;;;;;;;;;5075159;28;20500;-90
2022/11/16 02:01:31;;;;;;;0.00;0.00;;;;;;;;;;5075249;28;20047;-88
2022/11/16 02:03:58;;;;;;;0.00;0.00;;;;;;;;;;5075365;28;20188;-90
2022/11/16 02:06:30;;;;;;;0.00;0.00;;;;;;;;;;5093152;28;20591;-88
2022/11/16 02:12:27;;;;;;;0.00;0.00;;;;;;;;;;5095784;28;20051;-90
2022/11/16 02:15:13;;;;;;;0.00;0.00;;;;;;;;;;5093620;28;20055;-88
2022/11/16 02:18:17;;;;;;;0.10;0.00;;;;;;;;;;5096256;28;20070;-89
2022/11/16 02:20:43;;;;;;;0.00;0.00;;;;;;;;;;5078836;28;20036;-88
2022/11/16 02:23:21;;;;;;;0.00;0.00;;;;;;;;;;5078733;28;20042;-88
2022/11/16 02:26:22;;;;;;;0.00;0.00;;;;;;;;;;5078943;28;20501;-88
2022/11/16 02:29:07;;;;;;;0.00;0.00;;;;;;;;;;5047055;28;20051;-88
2022/11/16 02:31:48;;;;;;;0.00;0.00;;;;;;;;;;5079354;28;20086;-89
2022/11/16 02:34:17;;;;;;;0.00;0.00;;;;;;;;;;5062042;28;20051;-88
2022/11/16 02:36:49;;;;;;;0.00;0.00;;;;;;;;;;5078953;28;20120;-89
2022/11/16 02:39:22;;;;;;;0.00;0.00;;;;;;;;;;5061787;28;20047;-88
2022/11/16 02:41:51;;;;;;;0.00;0.00;;;;;;;;;;5095633;28;20062;-89
2022/11/16 02:44:21;;;;;;;0.00;0.00;;;;;;;;;;5078670;28;20145;-88
2022/11/16 02:46:58;;;;;;;0.00;0.00;;;;;;;;;;5079199;28;20089;-88
2022/11/16 02:49:29;;;;;;;0.00;0.00;;;;;;;;;;5078479;28;20078;-89
2022/11/16 02:52:01;;;;;;;0.00;0.00;;;;;;;;;;5095593;28;20118;-89
2022/11/16 02:54:30;;;;;;;0.00;0.00;;;;;;;;;;5078749;28;20040;-89
2022/11/16 02:57:02;;;;;;;0.00;0.00;;;;;;;;;;5078428;28;20040;-89
2022/11/16 02:59:42;;;;;;;0.00;0.00;;;;;;;;;;5078359;28;20442;-87
2022/11/16 03:02:26;;;;;;;0.00;0.00;;;;;;;;;;5079095;28;20040;-89
2022/11/16 03:05:30;;;;;;;0.00;0.00;;;;;;;;;;5078456;28;20369;-89
2022/11/16 03:08:18;;;;;;;0.00;0.00;;;;;;;;;;5020940;28;20548;-88
2022/11/16 03:13:44;;;;;;;0.00;0.00;;;;;;;;;;5037516;28;20044;-89
2022/11/16 03:16:16;;;;;;;0.00;0.00;;;;;;;;;;5004620;28;20218;-88
2022/11/16 03:18:44;;;;;;;0.00;0.00;;;;;;;;;;5074679;28;20400;-88
2022/11/16 03:21:16;;;;;;;0.00;0.00;;;;;;;;;;5077497;28;20388;-87
2022/11/16 03:23:43;;;;;;;0.00;0.00;;;;;;;;;;5077911;28;20036;-88
2022/11/16 03:26:13;;;;;;;0.00;0.00;;;;;;;;;;5077883;28;20035;-89
2022/11/16 03:28:44;;;;;;;0.00;0.00;;;;;;;;;;5077954;28;20039;-87
2022/11/16 03:31:18;;;;;;;0.00;0.00;;;;;;;;;;5077646;28;20056;-89
2022/11/16 03:33:49;;;;;;;0.00;0.00;;;;;;;;;;5078044;28;20517;-89
2022/11/16 03:36:35;;;;;;;0.00;0.00;;;;;;;;;;5077474;28;20480;-88
2022/11/16 03:39:20;;;;;;;0.00;0.00;;;;;;;;;;5077090;28;20040;-89
2022/11/16 03:41:49;;;;;;;0.00;0.00;;;;;;;;;;5094518;28;20036;-88
2022/11/16 03:44:18;;;;;;;0.00;0.00;;;;;;;;;;5094245;28;20040;-88
2022/11/16 03:46:45;;;;;;;0.00;0.00;;;;;;;;;;5077380;28;20133;-89
2022/11/16 03:49:11;;;;;;;0.00;0.00;;;;;;;;;;5093952;28;20086;-88
2022/11/16 03:51:40;;;;;;;0.00;0.00;;;;;;;;;;5077312;28;20071;-89
2022/11/16 03:54:07;;;;;;;0.00;0.00;;;;;;;;;;5094057;28;20032;-88
2022/11/16 03:56:33;;;;;;;0.00;0.00;;;;;;;;;;5094082;28;20032;-89
2022/11/16 03:58:59;;;;;;;0.00;0.00;;;;;;;;;;5077418;28;20040;-88
2022/11/16 04:01:25;;;;;;;0.00;0.00;;;;;;;;;;5076648;28;20044;-88
2022/11/16 04:03:51;;;;;;;0.00;0.00;;;;;;;;;;5077044;28;20075;-87
2022/11/16 04:26:05;;;;;;;0.00;0.00;;;;;;;;;;5036033;28;20041;-88
2022/11/16 04:28:37;;;;;;;0.00;0.00;;;;;;;;;;5018862;28;20493;-89
2022/11/16 04:40:03;;;;;;;0.00;0.00;;;;;;;;;;5052201;28;20044;-88
2022/11/16 04:42:29;;;;;;;0.00;0.00;;;;;;;;;;5035108;28;20095;-89
2022/11/16 04:47:48;;;;;;;;;;;;;;;;;;5093439;28;20040;-89
2022/11/16 04:50:14;;;;;;;0.00;0.00;;;;;;;;;;5075948;28;19916;-87
2022/11/16 04:52:46;;;;;;;0.00;0.00;;;;;;;;;;5093310;28;20044;-89
2022/11/16 04:55:12;;;;;;;0.52;0.28;;;;;;;;;;5076008;28;20079;-89
2022/11/16 04:57:40;;;;;;;0.00;0.00;;;;;;;;;;5076401;28;20074;-88
2022/11/16 05:00:06;;;;;;;0.00;0.00;;;;;;;;;;5075979;28;20272;-88
2022/11/16 05:02:32;;;;;;;0.00;0.00;;;;;;;;;;5076327;28;20032;-88
2022/11/16 05:04:58;;;;;;;0.10;0.10;;;;;;;;;;5059307;28;20036;-88
2022/11/16 05:07:24;;;;;;;0.00;0.00;;;;;;;;;;5076017;28;20040;-87
2022/11/16 05:10:04;;;;;;;0.00;0.00;;;;;;;;;;5059237;28;20138;-89
2022/11/16 05:12:30;;;;;;;0.00;0.00;;;;;;;;;;5093027;28;20073;-89
2022/11/16 05:14:57;;;;;;;0.00;0.00;;;;;;;;;;5075913;28;20051;-88
2022/11/16 05:17:24;;;;;;;0.00;0.00;;;;;;;;;;5075769;28;20040;-87
2022/11/16 05:22:39;;;;;;;0.00;0.00;;;;;;;;;;5092414;28;20048;-87
2022/11/16 05:25:07;;;;;;;0.00;0.00;;;;;;;;;;5075781;28;20039;-88
2022/11/16 05:27:33;;;;;;;0.00;0.00;;;;;;;;;;5092608;28;20473;-87
2022/11/16 05:29:59;;;;;;;0.00;0.00;;;;;;;;;;5075614;28;20052;-87
2022/11/16 05:32:26;;;;;;;0.00;0.00;;;;;;;;;;5075387;28;20047;-88
2022/11/16 05:35:03;;;;;;;0.00;0.00;;;;;;;;;;5076090;28;20040;-88
2022/11/16 05:37:30;;;;;;;0.00;0.00;;;;;;;;;;5092008;28;20060;-88
2022/11/16 05:39:55;;;;;;;0.00;0.00;;;;;;;;;;5092360;28;20096;-87
2022/11/16 05:42:23;;;;;;;0.00;0.00;;;;;;;;;;5094853;28;20051;-88
2022/11/16 05:44:50;;;;;;;0.00;0.00;;;;;;;;;;5096497;28;20044;-87
2022/11/16 05:47:16;;;;;;;0.00;0.00;;;;;;;;;;5079280;28;20085;-88
2022/11/16 05:49:42;;;;;;;0.00;0.00;;;;;;;;;;5079333;28;20040;-87
2022/11/16 05:52:09;;;;;;;0.00;0.00;;;;;;;;;;5078991;28;20113;-88
2022/11/16 05:55:00;;;;;;;0.00;0.00;;;;;;;;;;5079235;28;20043;-87
2022/11/16 05:57:30;;;;;;;0.00;0.00;;;;;;;;;;5097163;28;20089;-89
2022/11/16 05:59:58;;;;;;;0.00;0.00;;;;;;;;;;5079297;28;20036;-88
2022/11/16 06:02:27;;;;;;;0.00;0.00;;;;;;;;;;5096044;28;20032;-88
2022/11/16 06:04:55;;;;;;;0.00;0.00;;;;;;;;;;5079270;28;20071;-87
2022/11/16 06:07:24;;;;;;;0.00;0.00;;;;;;;;;;5096244;28;20040;-88
2022/11/16 06:09:59;;;;;;;0.00;0.00;;;;;;;;;;5095580;28;20051;-88
2022/11/16 06:12:25;;;;;;;0.00;0.00;;;;;;;;;;5095845;28;20059;-87
2022/11/16 06:14:51;;;;;;;0.00;0.00;;;;;;;;;;5079169;28;20044;-87
2022/11/16 06:17:20;;;;;;;0.00;0.00;;;;;;;;;;5078988;28;20202;-87
2022/11/16 06:19:46;;;;;;;0.00;0.00;;;;;;;;;;5078618;28;20071;-88
2022/11/16 06:22:12;;;;;;;0.55;0.10;;;;;;;;;;5078597;28;20040;-86
2022/11/16 06:24:38;;;;;;;0.00;0.00;;;;;;;;;;5078395;28;20036;-87
2022/11/16 06:27:04;;;;;;;0.00;0.00;;;;;;;;;;5095191;28;20062;-87
2022/11/16 06:29:30;;;;;;;0.43;0.15;;;;;;;;;;5078566;28;20052;-87
2022/11/16 06:31:56;;;;;;;0.00;0.00;;;;;;;;;;5061694;28;20048;-89
2022/11/16 06:34:29;;;;;;;0.00;0.00;;;;;;;;;;5078950;28;20512;-88
2022/11/16 06:36:55;;;;;;;0.00;0.00;;;;;;;;;;5095451;28;20090;-88
2022/11/16 06:39:21;;;;;;;0.00;0.00;;;;;;;;;;5095450;28;20036;-88
2022/11/16 06:41:58;;;;;;;0.00;0.00;;;;;;;;;;5095428;28;20127;-87
2022/11/16 06:44:24;;;;;;;0.00;0.00;;;;;;;;;;5078533;28;20040;-87
2022/11/16 06:46:50;;;;;;;0.00;0.00;;;;;;;;;;5095062;28;20062;-88
2022/11/16 06:49:20;;;;;;;0.00;0.00;;;;;;;;;;5062467;28;20127;-87
2022/11/16 06:51:48;;;;;;;0.28;0.10;;;;;;;;;;5077544;28;20052;-88
2022/11/16 06:54:15;;;;;;;0.00;0.00;;;;;;;;;;5078480;28;20387;-87
2022/11/16 06:56:41;;;;;;;0.00;0.00;;;;;;;;;;5078049;28;20044;-87
2022/11/16 06:59:07;;;;;;;0.00;0.00;;;;;;;;;;5077985;28;20046;-87
2022/11/16 07:01:33;;;;;;;0.00;0.00;;;;;;;;;;5077493;28;20446;-89
2022/11/16 07:03:59;;;;;;;0.00;0.00;;;;;;;;;;5077985;28;20036;-88
2022/11/16 07:06:26;;;;;;;0.00;0.00;;;;;;;;;;5077710;28;20373;-87
2022/11/16 07:08:55;;;;;;;0.00;0.00;;;;;;;;;;5061193;28;20036;-87
2022/11/16 07:11:22;;;;;;;0.00;0.00;;;;;;;;;;5077675;28;20488;-87
2022/11/16 07:13:48;;;;;;;0.00;0.00;;;;;;;;;;5077678;28;20131;-87
2022/11/16 07:16:15;;;;;;;0.00;0.00;;;;;;;;;;5077500;28;20071;-88
2022/11/16 07:18:41;;;;;;;0.00;0.00;;;;;;;;;;5077875;28;20046;-87
2022/11/16 07:21:12;;;;;;;0.00;0.00;;;;;;;;;;5077580;28;20128;-88
2022/11/16 07:23:38;;;;;;;0.00;0.00;;;;;;;;;;5077989;28;20493;-88
2022/11/16 07:26:06;;;;;;;0.00;0.00;;;;;;;;;;5077689;28;20043;-90
2022/11/16 07:28:32;;;;;;;0.00;0.00;;;;;;;;;;5077387;28;20067;-88
2022/11/16 07:31:01;;;;;;;0.00;0.00;;;;;;;;;;5076805;28;20349;-88
2022/11/16 07:33:28;;;;;;;0.00;0.00;;;;;;;;;;5074080;28;20052;-87
2022/11/16 07:36:17;;;;;;;0.00;0.00;;;;;;;;;;5063577;28;20051;-91
2022/11/16 07:38:44;;;;;;;0.00;0.00;;;;;;;;;;5079438;28;20059;-89
2022/11/16 07:41:11;;;;;;;0.00;0.00;;;;;;;;;;5082687;28;20064;-90
2022/11/16 07:43:38;;;;;;;0.32;0.10;;;;;;;;;;5065701;28;20043;-90
2022/11/16 07:46:14;;;;;;;0.00;0.00;;;;;;;;;;5089457;28;20563;-90
2022/11/16 07:48:41;;;;;;;;;;;;;;;;;;5087436;28;20043;-87
2022/11/16 07:51:11;;;;;;;0.00;0.00;;;;;;;;;;5093744;28;20427;-88
2022/11/16 07:53:39;;;;;;;0.00;0.00;;;;;;;;;;5096223;28;20043;-90
2022/11/16 07:56:06;;;;;;;0.00;0.00;;;;;;;;;;5096061;28;20537;-88
2022/11/16 07:58:33;;;;;;;0.00;0.00;;;;;;;;;;5085864;28;20062;-87
2022/11/16 08:01:05;;;;;;;0.00;0.00;;;;;;;;;;5092090;28;20074;-89
2022/11/16 08:03:33;;;;;;;0.00;0.00;;;;;;;;;;5092100;28;20139;-90
2022/11/16 08:06:00;;;;;;;0.00;0.00;;;;;;;;;;5097593;28;20044;-90
2022/11/16 08:08:36;;;;;;;0.00;0.00;;;;;;;;;;5082439;28;20606;-91
2022/11/16 08:11:04;;;;;;;0.00;0.00;;;;;;;;;;5063434;28;20059;-91
2022/11/16 08:13:35;;;;;;;0.00;0.00;;;;;;;;;;5066223;28;20394;-90
2022/11/16 08:16:03;;;;;;;0.10;0.00;;;;;;;;;;5083475;28;20052;-89
2022/11/16 08:18:31;;;;;;;0.00;0.00;;;;;;;;;;5076007;28;20043;-91
2022/11/16 08:21:01;;;;;;;0.00;0.00;;;;;;;;;;5088267;28;20084;-90
2022/11/16 08:23:27;;;;;;;0.00;0.00;;;;;;;;;;5062374;28;20127;-91
2022/11/16 08:25:58;;;;;;;0.00;0.00;;;;;;;;;;5058824;28;20051;-90
2022/11/16 08:28:24;;;;;;;0.55;0.55;;;;;;;;;;5076511;28;20081;-91
2022/11/16 08:30:51;;;;;;;0.00;0.00;;;;;;;;;;5086153;28;20547;-88
2022/11/16 08:33:19;;;;;;;0.00;0.00;;;;;;;;;;5075010;28;20051;-92
2022/11/16 08:35:46;;;;;;;0.00;0.00;;;;;;;;;;5074423;28;20468;-90
2022/11/16 08:38:13;;;;;;;0.00;0.00;;;;;;;;;;5076147;28;20097;-90
2022/11/16 08:40:39;;;;;;;0.00;0.00;;;;;;;;;;5076868;28;20048;-91
2022/11/16 08:43:05;;;;;;;0.00;0.00;;;;;;;;;;5076286;28;20460;-91
2022/11/16 08:45:32;;;;;;;0.00;0.00;;;;;;;;;;5076610;28;20430;-90
2022/11/16 08:47:58;;;;;;;0.00;0.00;;;;;;;;;;5076510;28;20028;-91
2022/11/16 08:50:25;;;;;;;0.00;0.00;;;;;;;;;;5076346;28;20040;-90
2022/11/16 08:52:51;;;;;;;0.00;0.00;;;;;;;;;;5075885;28;20040;-87
2022/11/16 08:55:17;;;;;;;0.00;0.00;;;;;;;;;;5081729;28;20044;-91
2022/11/16 08:57:43;;;;;;;0.00;0.00;;;;;;;;;;5077332;28;20059;-90
2022/11/16 09:00:10;;;;;;;0.00;0.00;;;;;;;;;;5075917;28;20062;-90
2022/11/16 09:02:37;;;;;;;0.00;0.00;;;;;;;;;;5075870;28;20036;-89
2022/11/16 09:05:04;;;;;;;0.00;0.00;;;;;;;;;;5077903;28;20040;-87
2022/11/16 09:07:30;;;;;;;0.00;0.00;;;;;;;;;;5092880;28;20085;-89
2022/11/16 09:09:56;;;;;;;0.00;0.00;;;;;;;;;;5076364;28;20040;-88
2022/11/16 09:12:22;;;;;;;0.00;0.00;;;;;;;;;;5075897;28;20446;-90
2022/11/16 09:14:48;;;;;;;0.00;0.00;;;;;;;;;;5075606;28;20057;-88
2022/11/16 09:17:14;;;;;;;0.00;0.00;;;;;;;;;;5075901;28;20477;-88
2022/11/16 09:19:40;;;;;;;0.00;0.00;;;;;;;;;;5092384;28;20040;-84
2022/11/16 09:22:06;;;;;;;0.00;0.00;;;;;;;;;;5092209;28;20036;-84
2022/11/16 09:24:33;;;;;;;0.10;0.00;;;;;;;;;;5074651;28;20032;-87
2022/11/16 09:27:05;;;;;;;0.00;0.00;;;;;;;;;;5075128;28;20040;-87
2022/11/16 09:29:31;;;;;;;0.00;0.00;;;;;;;;;;5092193;28;20047;-87
2022/11/16 09:31:59;;;;;;;0.00;0.00;;;;;;;;;;5092213;28;20100;-87
2022/11/16 09:34:25;;;;;;;0.00;0.00;;;;;;;;;;5075639;28;20384;-88
2022/11/16 09:36:51;;;;;;;0.00;0.00;;;;;;;;;;5092172;28;20530;-87
2022/11/16 09:39:17;;;;;;;0.00;0.00;;;;;;;;;;5074788;28;20397;-82
2022/11/16 09:42:02;;;;;;;0.00;0.00;;;;;;;;;;5091708;28;20039;-87
2022/11/16 09:44:44;;;;;;;0.17;0.15;;;;;;;;;;5089737;28;20090;-89
2022/11/16 09:47:16;;;;;;;0.20;0.10;;;;;;;;;;5073932;28;20048;-88
2022/11/16 09:49:45;;;;;;;0.32;0.20;;;;;;;;;;5074971;28;20130;-88
2022/11/16 09:52:37;;;;;;;0.00;0.00;;;;;;;;;;5092169;28;20063;-91
2022/11/16 09:55:24;;;;;;;0.00;0.00;;;;;;;;;;5089355;28;20097;-85
2022/11/16 09:57:53;;;;;;;0.00;0.00;;;;;;;;;;5074714;28;20032;-87
2022/11/16 10:00:22;;;;;;;0.00;0.00;;;;;;;;;;5075292;28;20040;-87
2022/11/16 10:02:56;;;;;;;0.00;0.00;;;;;;;;;;5091923;28;20047;-89
2022/11/16 10:05:37;;;;;;;0.00;0.00;;;;;;;;;;5075800;28;20036;-88
2022/11/16 10:08:14;;;;;;;0.00;0.00;;;;;;;;;;5075047;28;20040;-89
2022/11/16 10:10:46;;;;;;;0.20;0.10;;;;;;;;;;5075861;28;20126;-89
2022/11/16 10:13:19;;;;;;;0.00;0.00;;;;;;;;;;5075476;28;20055;-90
2022/11/16 10:15:45;;;;;;;0.00;0.00;;;;;;;;;;5075509;28;20044;-87
2022/11/16 10:18:20;;;;;;;0.00;0.00;;;;;;;;;;5075188;28;20043;-91
2022/11/16 10:20:53;;;;;;;0.00;0.00;;;;;;;;;;5074881;28;20047;-89
2022/11/16 10:23:31;;;;;;;0.00;0.00;;;;;;;;;;5075546;28;20032;-89
2022/11/16 10:26:02;;;;;;;0.00;0.00;;;;;;;;;;5075435;28;20036;-91
2022/11/16 10:28:28;;;;;;;0.00;0.00;;;;;;;;;;5094636;28;20040;-91
2022/11/16 10:31:13;;;;;;;0.00;0.00;;;;;;;;;;5095778;28;20087;-88
2022/11/16 10:33:41;;;;;;;0.00;0.00;;;;;;;;;;5079159;28;20051;-88
2022/11/16 10:36:12;;;;;;;0.00;0.00;;;;;;;;;;5078869;28;20106;-89
2022/11/16 10:38:38;;;;;;;0.00;0.00;;;;;;;;;;5079183;28;20036;-89
2022/11/16 10:41:14;;;;;;;0.00;0.00;;;;;;;;;;5078717;28;20519;-89
2022/11/16 10:43:41;;;;;;;0.00;0.00;;;;;;;;;;5078474;28;20036;-89
2022/11/16 10:46:14;;;;;;;0.20;0.10;;;;;;;;;;5078724;28;20089;-88
2022/11/16 10:48:46;;;;;;;0.00;0.00;;;;;;;;;;5078451;28;20073;-89
2022/11/16 10:51:12;;;;;;;0.00;0.00;;;;;;;;;;5081179;28;20043;-91
2022/11/16 10:53:39;;;;;;;0.00;0.00;;;;;;;;;;5078410;28;20051;-92
2022/11/16 10:56:21;;;;;;;0.00;0.00;;;;;;;;;;5078665;28;20044;-88
2022/11/16 10:58:51;;;;;;;0.00;0.00;;;;;;;;;;5079028;28;20075;-88
2022/11/16 11:01:35;;;;;;;0.00;0.00;;;;;;;;;;5095200;28;20068;-88
2022/11/16 11:04:16;;;;;;;0.00;0.00;;;;;;;;;;5077069;28;20036;-90
2022/11/16 11:06:42;;;;;;;0.00;0.00;;;;;;;;;;5078439;28;20036;-90
2022/11/16 11:09:25;;;;;;;0.00;0.00;;;;;;;;;;5078111;28;20101;-90
2022/11/16 11:14:57;;;;;;;0.00;0.00;;;;;;;;;;5094660;28;20052;-88
2022/11/16 11:17:23;;;;;;;0.00;0.00;;;;;;;;;;5077330;28;20039;-84
2022/11/16 11:19:56;;;;;;;0.00;0.00;;;;;;;;;;5076502;28;20044;-86
2022/11/16 11:22:22;;;;;;;0.00;0.00;;;;;;;;;;5076934;28;20488;-85
2022/11/16 11:24:48;;;;;;;0.20;0.05;;;;;;;;;;5076898;28;20422;-86
2022/11/16 11:27:20;;;;;;;0.00;0.00;;;;;;;;;;5093610;28;20477;-85
2022/11/16 11:29:50;;;;;;;0.00;0.00;;;;;;;;;;5076724;28;20047;-85
2022/11/16 11:32:18;;;;;;;0.00;0.00;;;;;;;;;;5093255;28;20052;-86
2022/11/16 11:34:46;;;;;;;0.00;0.00;;;;;;;;;;5093608;28;20079;-86
2022/11/16 11:37:18;;;;;;;0.00;0.00;;;;;;;;;;5077046;28;20520;-87
2022/11/16 11:39:44;;;;;;;0.13;0.13;;;;;;;;;;5093287;28;20062;-86
2022/11/16 11:42:10;;;;;;;0.00;0.00;;;;;;;;;;5076766;28;20040;-86
2022/11/16 11:44:50;;;;;;;0.00;0.00;;;;;;;;;;5076060;28;20404;-85
2022/11/16 11:47:35;;;;;;;0.00;0.00;;;;;;;;;;5076722;28;20119;-85
2022/11/16 11:50:10;;;;;;;0.00;0.00;;;;;;;;;;5076344;28;20421;-85
2022/11/16 11:52:39;;;;;;;0.00;0.00;;;;;;;;;;5076164;28;20039;-85
2022/11/16 11:55:07;;;;;;;0.00;0.00;;;;;;;;;;5076080;28;20035;-85
2022/11/16 11:57:36;;;;;;;0.00;0.00;;;;;;;;;;5076047;28;20085;-86
2022/11/16 12:00:02;;;;;;;0.00;0.00;;;;;;;;;;5092854;28;20048;-86
2022/11/16 12:02:47;;;;;;;0.00;0.00;;;;;;;;;;5093160;28;20082;-85
2022/11/16 12:05:33;;;;;;;0.00;0.00;;;;;;;;;;5075824;28;20085;-86
2022/11/16 12:08:11;;;;;;;0.00;0.00;;;;;;;;;;5077183;28;20032;-88
2022/11/16 12:11:02;;;;;;;0.00;0.00;;;;;;;;;;5092806;28;20551;-88
2022/11/16 12:13:31;;;;;;;0.00;0.00;;;;;;;;;;5092846;28;20046;-86
2022/11/16 12:16:01;;;;;;;0.00;0.00;;;;;;;;;;5075704;28;20086;-86
2022/11/16 12:18:37;;;;;;;0.17;0.08;;;;;;;;;;5088535;28;20039;-85
2022/11/16 12:21:09;;;;;;;0.00;0.00;;;;;;;;;;5075475;28;20458;-86
2022/11/16 12:23:38;;;;;;;0.00;0.00;;;;;;;;;;5075495;28;20038;-85
2022/11/16 12:26:07;;;;;;;0.00;0.00;;;;;;;;;;5092430;28;20126;-85
2022/11/16 12:28:36;;;;;;;0.00;0.00;;;;;;;;;;5075639;28;20123;-86
2022/11/16 12:31:15;;;;;;;0.00;0.00;;;;;;;;;;5092026;28;20139;-86
2022/11/16 12:33:52;;;;;;;0.00;0.00;;;;;;;;;;5075689;28;20044;-86
2022/11/16 12:36:24;;;;;;;0.00;0.00;;;;;;;;;;5075343;28;20047;-86
2022/11/16 12:39:04;;;;;;;0.05;0.00;;;;;;;;;;5075706;28;20052;-86
2022/11/16 12:41:53;;;;;;;0.00;0.00;;;;;;;;;;5075412;28;20085;-85
2022/11/16 12:44:25;;;;;;;0.00;0.00;;;;;;;;;;5074905;28;20039;-86
2022/11/16 12:46:57;;;;;;;0.00;0.00;;;;;;;;;;5075494;28;20071;-87
2022/11/16 12:49:29;;;;;;;0.00;0.00;;;;;;;;;;5092706;28;20372;-85
2022/11/16 12:52:02;;;;;;;0.00;0.00;;;;;;;;;;5091351;28;20471;-86
2022/11/16 12:54:31;;;;;;;0.00;0.00;;;;;;;;;;5092226;28;20039;-86
2022/11/16 12:57:00;;;;;;;0.00;0.00;;;;;;;;;;5074955;28;20044;-87
2022/11/16 12:59:35;;;;;;;0.00;0.00;;;;;;;;;;5092046;28;20093;-85
2022/11/16 13:02:13;;;;;;;0.00;0.00;;;;;;;;;;5092027;28;20044;-86
2022/11/16 13:04:44;;;;;;;0.00;0.00;;;;;;;;;;5092467;28;20048;-91
2022/11/16 13:07:17;;;;;;;0.00;0.00;;;;;;;;;;5091789;28;20036;-86
2022/11/16 13:09:46;;;;;;;0.00;0.00;;;;;;;;;;5091956;28;20078;-86
2022/11/16 13:12:15;;;;;;;0.00;0.00;;;;;;;;;;5091627;28;20059;-85
2022/11/16 13:14:43;;;;;;;0.00;0.00;;;;;;;;;;5091732;28;20036;-85
2022/11/16 13:17:21;;;;;;;0.00;0.00;;;;;;;;;;5074721;28;20044;-85
2022/11/16 13:19:54;;;;;;;0.00;0.00;;;;;;;;;;5091788;28;20555;-84
2022/11/16 13:22:22;;;;;;;0.00;0.00;;;;;;;;;;5074706;28;20044;-85
2022/11/16 13:24:57;;;;;;;0.00;0.00;;;;;;;;;;5074857;28;20383;-85
2022/11/16 13:27:38;;;;;;;0.00;0.00;;;;;;;;;;5091736;28;20044;-86
2022/11/16 13:30:06;;;;;;;0.00;0.00;;;;;;;;;;5074263;28;20040;-85
2022/11/16 13:32:33;;;;;;;0.00;0.00;;;;;;;;;;5093898;28;20039;-88
2022/11/16 13:35:00;;;;;;;0.00;0.00;;;;;;;;;;5076501;28;20535;-85
2022/11/16 13:37:38;;;;;;;0.00;0.00;;;;;;;;;;5074561;28;20516;-85
2022/11/16 13:40:04;;;;;;;0.00;0.00;;;;;;;;;;5091501;28;20040;-85
2022/11/16 13:42:31;;;;;;;0.00;0.00;;;;;;;;;;5091421;28;20391;-85
2022/11/16 13:45:07;;;;;;;0.00;0.00;;;;;;;;;;5091292;28;20423;-85
2022/11/16 13:47:33;;;;;;;0.00;0.00;;;;;;;;;;5091478;28;20036;-85
2022/11/16 13:50:00;;;;;;;0.00;0.00;;;;;;;;;;5074607;28;20047;-85
2022/11/16 13:52:43;;;;;;;0.00;0.00;;;;;;;;;;5091435;28;20485;-85
2022/11/16 13:55:14;;;;;;;0.00;0.00;;;;;;;;;;5074555;28;20095;-85
2022/11/16 13:57:49;;;;;;;0.00;0.00;;;;;;;;;;5091244;28;20079;-86
2022/11/16 14:00:30;;;;;;;0.00;0.00;;;;;;;;;;5091025;28;20076;-85
2022/11/16 14:03:14;;;;;;;0.00;0.00;;;;;;;;;;5092900;28;20086;-86
2022/11/16 14:05:41;;;;;;;0.00;0.00;;;;;;;;;;5095157;28;20036;-87
2022/11/16 14:08:27;;;;;;;0.00;0.00;;;;;;;;;;5095277;28;20221;-86
2022/11/16 14:10:53;;;;;;;0.00;0.00;;;;;;;;;;5067839;28;20087;-86
2022/11/16 14:13:35;;;;;;;0.00;0.00;;;;;;;;;;5078292;28;20093;-86
2022/11/16 14:16:13;;;;;;;0.00;0.00;;;;;;;;;;5094781;28;20043;-86
2022/11/16 14:18:39;;;;;;;0.00;0.00;;;;;;;;;;5078322;28;20047;-86
2022/11/16 14:21:09;;;;;;;0.00;0.00;;;;;;;;;;5077874;28;20542;-86
2022/11/16 14:23:41;;;;;;;0.00;0.00;;;;;;;;;;5094951;28;20032;-85
2022/11/16 14:26:19;;;;;;;0.00;0.00;;;;;;;;;;5077790;28;20036;-85
2022/11/16 14:29:03;;;;;;;0.00;0.00;;;;;;;;;;5078179;28;20040;-86
2022/11/16 14:31:31;;;;;;;0.00;0.00;;;;;;;;;;5077400;28;20490;-86
2022/11/16 14:33:58;;;;;;;0.00;0.00;;;;;;;;;;5074454;28;20134;-87
2022/11/16 14:36:37;;;;;;;0.00;0.00;;;;;;;;;;5076871;28;20036;-86
2022/11/16 14:39:25;;;;;;;0.00;0.00;;;;;;;;;;5096363;28;20046;-86
2022/11/16 14:41:52;;;;;;;0.00;0.00;;;;;;;;;;5078431;28;20040;-86
2022/11/16 14:44:22;;;;;;;0.00;0.00;;;;;;;;;;5078767;28;20494;-85
2022/11/16 14:46:48;;;;;;;0.00;0.00;;;;;;;;;;5077645;28;20090;-85
2022/11/16 14:49:16;;;;;;;0.00;0.00;;;;;;;;;;5077963;28;20435;-86
2022/11/16 14:51:46;;;;;;;0.00;0.00;;;;;;;;;;5077698;28;20048;-87
2022/11/16 14:54:26;;;;;;;0.00;0.00;;;;;;;;;;5094652;28;20044;-87
2022/11/16 14:56:56;;;;;;;0.00;0.00;;;;;;;;;;5094252;28;20073;-87
2022/11/16 14:59:23;;;;;;;0.00;0.00;;;;;;;;;;5077429;28;20222;-86
2022/11/16 15:01:49;;;;;;;0.00;0.00;;;;;;;;;;5093968;28;20121;-86
2022/11/16 15:04:17;;;;;;;0.00;0.00;;;;;;;;;;5077517;28;20040;-87
2022/11/16 15:06:43;;;;;;;0.00;0.00;;;;;;;;;;5093988;28;20373;-87
2022/11/16 15:09:13;;;;;;;0.00;0.00;;;;;;;;;;5094223;28;20039;-87
2022/11/16 15:14:26;;;;;;;0.00;0.00;;;;;;;;;;5093816;28;20043;-86
2022/11/16 15:16:53;;;;;;;0.00;0.00;;;;;;;;;;5077093;28;20044;-87
2022/11/16 15:19:20;;;;;;;0.00;0.00;;;;;;;;;;5094048;28;20084;-86
2022/11/16 15:21:56;;;;;;;0.00;0.00;;;;;;;;;;5076558;28;20047;-86
2022/11/16 15:24:25;;;;;;;0.00;0.00;;;;;;;;;;5094119;28;20410;-87
2022/11/16 15:26:52;;;;;;;0.00;0.00;;;;;;;;;;5093740;28;20032;-86
2022/11/16 15:29:19;;;;;;;0.00;0.00;;;;;;;;;;5076881;28;20089;-87
2022/11/16 15:31:45;;;;;;;0.00;0.00;;;;;;;;;;5093198;28;20052;-86
2022/11/16 15:34:12;;;;;;;0.00;0.00;;;;;;;;;;5093661;28;20040;-86
2022/11/16 15:36:39;;;;;;;0.00;0.00;;;;;;;;;;5093593;28;20054;-86
2022/11/16 15:39:06;;;;;;;0.00;0.00;;;;;;;;;;5076721;28;20400;-87
2022/11/16 15:41:32;;;;;;;0.00;0.00;;;;;;;;;;5076408;28;20048;-87
2022/11/16 15:43:59;;;;;;;0.00;0.00;;;;;;;;;;5093715;28;20361;-87
2022/11/16 15:46:27;;;;;;;0.00;0.00;;;;;;;;;;5093313;28;20044;-86
2022/11/16 15:48:53;;;;;;;0.03;0.00;;;;;;;;;;5076730;28;20040;-87
2022/11/16 15:51:23;;;;;;;0.00;0.00;;;;;;;;;;5076315;28;20078;-86
2022/11/16 15:53:53;;;;;;;0.00;0.00;;;;;;;;;;5093236;28;20044;-87
2022/11/16 15:56:19;;;;;;;0.00;0.00;;;;;;;;;;5076580;28;20506;-86